11°C Temp
8°C Dewpoint
82% Humidity
Temperature
35 KM/H
22 MPH
19 KTS
220°
South West

Wind Speed
Partly Cloudy
Conditions
Pressure 1017 (hPa) - 30.03 (in)
Visibility 6.2 (mi) - 10 (km)

Current Conditions
EHGG
Location Eelde 6km (3.2mi)
Metar :EHGG 131025Z AUTO 22019G29KT 180V250 9999 FEW015CB 11/08 Q1017 TEMPO 7000 -SHRA RA FEW015CB
Tue 13th November 11:25 am

Airport
  Metar Aviation API Data Provided by https://www.checkwx.com/ PHP scripts by weather34.com ©2018